Time;durP1;ratioP1;P1;durP2;ratioP2;P2;SDS_P1;SDS_P2;PMS_P1;PMS_P2;Temp;Humidity;BMP_temperature;BMP_pressure;BME280_temperature;BME280_humidity;BME280_pressure;Samples;Min_cycle;Max_cycle;Signal;HPM_P1;HPM_P2
2022/12/13 00:00:23;;;;;;;1.90;1.80;;;-1.60;98.20;;;;;;4990727;28;20472;-71
2022/12/13 00:02:50;;;;;;;1.80;1.70;;;-1.60;98.20;;;;;;4981807;28;21085;-72
2022/12/13 00:05:17;;;;;;;1.83;1.73;;;-1.60;98.20;;;;;;4989393;28;20488;-71
2022/12/13 00:07:44;;;;;;;1.90;1.80;;;-1.60;98.20;;;;;;4978499;28;21025;-72
2022/12/13 00:10:11;;;;;;;1.83;1.73;;;-1.70;98.20;;;;;;4977603;28;20469;-71
2022/12/13 00:12:44;;;;;;;1.90;1.80;;;-1.70;98.20;;;;;;4982580;28;20592;-72
2022/12/13 00:15:11;;;;;;;1.90;1.80;;;-1.70;98.20;;;;;;4977577;28;20505;-72
2022/12/13 00:17:38;;;;;;;2.10;1.90;;;-1.70;98.20;;;;;;4977747;28;20496;-71
2022/12/13 00:20:06;;;;;;;1.97;1.80;;;-1.70;98.20;;;;;;4989800;28;20475;-72
2022/12/13 00:22:33;;;;;;;2.60;2.40;;;-1.70;98.20;;;;;;4982419;28;20573;-72
2022/12/13 00:25:00;;;;;;;1.90;1.80;;;-1.70;98.20;;;;;;4988030;28;20492;-72
2022/12/13 00:27:26;;;;;;;1.90;1.80;;;-1.70;98.20;;;;;;4982074;28;20489;-72
2022/12/13 00:29:55;;;;;;;2.10;1.90;;;-1.80;98.20;;;;;;4987963;28;20462;-71
2022/12/13 00:32:21;;;;;;;2.10;1.90;;;-1.80;98.20;;;;;;4983105;28;20481;-72
2022/12/13 00:34:48;;;;;;;1.90;1.80;;;-1.90;98.20;;;;;;4987897;28;20464;-72
2022/12/13 00:37:15;;;;;;;1.90;1.80;;;-1.90;98.20;;;;;;4978125;28;20488;-72
2022/12/13 00:39:42;;;;;;;1.90;1.80;;;-1.90;98.20;;;;;;4981509;28;20476;-72
2022/12/13 00:42:09;;;;;;;1.93;1.80;;;-2.00;98.20;;;;;;4982695;28;20900;-71
2022/12/13 00:44:36;;;;;;;2.03;1.87;;;-2.00;98.20;;;;;;4994374;28;20485;-72
2022/12/13 00:47:04;;;;;;;1.83;1.73;;;-2.00;98.20;;;;;;4982001;28;20485;-72
2022/12/13 00:49:31;;;;;;;1.90;1.80;;;-2.00;98.20;;;;;;4986934;28;20464;-72
2022/12/13 00:51:59;;;;;;;1.90;1.80;;;-2.00;98.20;;;;;;4982570;28;20488;-71
2022/12/13 00:54:25;;;;;;;2.00;1.90;;;-2.00;98.20;;;;;;4991374;28;20832;-72
2022/12/13 00:56:52;;;;;;;2.03;1.90;;;-2.00;98.20;;;;;;4981307;28;20493;-71
2022/12/13 00:59:20;;;;;;;1.90;1.80;;;-2.10;98.20;;;;;;4988607;28;20846;-72
2022/12/13 01:01:47;;;;;;;1.97;1.80;;;-2.10;98.20;;;;;;4982824;28;21258;-72
2022/12/13 01:04:15;;;;;;;1.90;1.80;;;-2.10;98.20;;;;;;4987674;28;20488;-72
2022/12/13 01:06:44;;;;;;;2.03;1.90;;;-2.10;98.20;;;;;;4977787;28;20491;-72
2022/12/13 01:09:17;;;;;;;2.07;1.90;;;-2.20;98.20;;;;;;4976971;28;20457;-73
2022/12/13 01:11:44;;;;;;;2.10;1.90;;;-2.20;98.20;;;;;;4981292;28;20480;-74
2022/12/13 01:14:11;;;;;;;1.97;1.80;;;-2.20;98.20;;;;;;4987593;28;20473;-73
2022/12/13 01:16:38;;;;;;;2.00;1.80;;;-2.20;98.20;;;;;;4981461;28;21001;-73
2022/12/13 01:19:04;;;;;;;3.30;3.10;;;-2.30;98.20;;;;;;4988403;28;20869;-73
2022/12/13 01:21:33;;;;;;;1.93;1.80;;;-2.30;98.20;;;;;;4982661;28;20488;-73
2022/12/13 01:24:05;;;;;;;2.33;2.13;;;-2.30;98.20;;;;;;4987298;28;20496;-73
2022/12/13 01:26:32;;;;;;;2.00;1.83;;;-2.30;98.20;;;;;;4981931;28;20480;-74
2022/12/13 01:29:00;;;;;;;2.00;1.80;;;-2.40;98.20;;;;;;4988232;28;20461;-73
2022/12/13 01:31:27;;;;;;;1.90;1.80;;;-2.40;98.20;;;;;;4982495;28;20535;-74
2022/12/13 01:33:54;;;;;;;1.90;1.80;;;-2.40;98.20;;;;;;4987967;28;20472;-75
2022/12/13 01:36:22;;;;;;;2.07;1.90;;;-2.40;98.20;;;;;;4978793;28;20480;-74
2022/12/13 01:38:50;;;;;;;2.10;1.90;;;-2.40;98.20;;;;;;4985930;28;20464;-77
2022/12/13 01:41:19;;;;;;;1.97;1.87;;;-2.50;98.20;;;;;;4977600;28;20568;-76
2022/12/13 01:43:53;;;;;;;2.10;1.90;;;-2.50;98.20;;;;;;4988810;28;20485;-74
2022/12/13 01:46:20;;;;;;;2.00;1.87;;;-2.50;98.20;;;;;;4972818;28;20846;-73
2022/12/13 01:48:52;;;;;;;2.07;1.90;;;-2.50;98.20;;;;;;4981762;28;20553;-72
2022/12/13 01:51:22;;;;;;;2.20;2.00;;;-2.50;98.20;;;;;;4976883;28;20476;-75
2022/12/13 01:53:51;;;;;;;2.07;1.90;;;-2.50;98.20;;;;;;4983802;28;20461;-73
2022/12/13 01:56:23;;;;;;;1.90;1.80;;;-2.50;98.20;;;;;;4971449;28;20488;-74
2022/12/13 01:58:52;;;;;;;1.93;1.83;;;-2.40;98.20;;;;;;4983302;28;20465;-75
2022/12/13 02:01:19;;;;;;;2.37;2.17;;;-2.40;98.20;;;;;;4976377;28;20947;-74
2022/12/13 02:03:46;;;;;;;1.90;1.80;;;-2.30;98.20;;;;;;4987966;28;20492;-76
2022/12/13 02:06:17;;;;;;;1.90;1.80;;;-2.30;98.20;;;;;;4982847;28;20488;-73
2022/12/13 02:08:45;;;;;;;2.00;1.90;;;-2.30;98.20;;;;;;4990953;28;20877;-74
2022/12/13 02:11:14;;;;;;;1.90;1.80;;;-2.30;98.20;;;;;;4979484;28;20481;-75
2022/12/13 02:13:41;;;;;;;1.97;1.80;;;-2.30;98.20;;;;;;4994574;28;20479;-73
2022/12/13 02:16:16;;;;;;;1.90;1.80;;;-2.30;98.20;;;;;;4982707;28;20503;-74
2022/12/13 02:18:56;;;;;;;1.90;1.80;;;-2.30;98.20;;;;;;4995078;28;20471;-73
2022/12/13 02:21:31;;;;;;;2.10;1.90;;;-2.30;98.20;;;;;;4982578;28;20471;-74
2022/12/13 02:24:32;;;;;;;1.93;1.80;;;-2.30;98.20;;;;;;4992499;28;20918;-74
2022/12/13 02:27:09;;;;;;;1.90;1.80;;;-2.30;98.20;;;;;;4985499;28;20483;-74
2022/12/13 02:30:09;;;;;;;2.20;2.00;;;-2.30;98.20;;;;;;4993006;28;20539;-74
2022/12/13 02:32:43;;;;;;;1.90;1.80;;;-2.30;98.20;;;;;;4971265;28;20480;-74
2022/12/13 02:35:14;;;;;;;2.20;2.00;;;-2.30;98.20;;;;;;4997447;28;20876;-72
2022/12/13 02:37:50;;;;;;;1.90;1.80;;;-2.30;98.20;;;;;;4982529;28;20489;-74
2022/12/13 02:40:23;;;;;;;2.00;1.80;;;-2.30;98.20;;;;;;4986345;28;20475;-74
2022/12/13 02:42:58;;;;;;;1.90;1.80;;;-2.30;98.20;;;;;;4986184;28;20488;-74
2022/12/13 02:45:30;;;;;;;1.93;1.80;;;-2.30;98.20;;;;;;4988062;28;21254;-74
2022/12/13 02:48:01;;;;;;;1.90;1.80;;;-2.30;98.20;;;;;;4978915;28;20488;-74
2022/12/13 02:50:30;;;;;;;1.90;1.80;;;-2.40;98.20;;;;;;4995779;28;20467;-75
2022/12/13 02:52:58;;;;;;;1.93;1.80;;;-2.40;98.20;;;;;;4986516;28;20484;-74
2022/12/13 02:55:25;;;;;;;2.10;1.90;;;-2.40;98.20;;;;;;4992089;28;20484;-73
2022/12/13 02:57:52;;;;;;;1.90;1.80;;;-2.40;98.20;;;;;;4985844;28;20542;-73
2022/12/13 03:00:22;;;;;;;1.90;1.80;;;-2.50;98.20;;;;;;4991613;28;20465;-74
2022/12/13 03:03:06;;;;;;;1.90;1.80;;;-2.50;98.20;;;;;;4984862;28;20493;-73
2022/12/13 03:08:32;;;;;;;2.07;1.90;;;-2.50;98.20;;;;;;4979365;28;20787;-74
2022/12/13 03:11:05;;;;;;;1.93;1.80;;;-2.50;98.20;;;;;;4982530;28;20516;-74
2022/12/13 03:13:40;;;;;;;1.90;1.80;;;-2.60;98.20;;;;;;4991039;28;20457;-75
2022/12/13 03:16:20;;;;;;;1.90;1.80;;;-2.60;98.20;;;;;;4979040;28;20477;-76
2022/12/13 03:18:50;;;;;;;2.00;1.80;;;-2.70;98.20;;;;;;4990257;28;21051;-73
2022/12/13 03:21:17;;;;;;;2.03;1.90;;;-2.70;98.20;;;;;;4982345;28;20482;-73
2022/12/13 03:23:46;;;;;;;2.00;1.90;;;-2.80;98.20;;;;;;4989266;28;20535;-75
2022/12/13 03:26:16;;;;;;;1.90;1.80;;;-2.80;98.20;;;;;;4979436;28;20490;-73
2022/12/13 03:28:44;;;;;;;2.03;1.87;;;-2.80;98.20;;;;;;4985776;28;21135;-76
2022/12/13 03:31:10;;;;;;;2.40;2.20;;;-2.80;98.20;;;;;;4974727;28;20473;-73
2022/12/13 03:33:38;;;;;;;2.33;2.13;;;-2.90;98.20;;;;;;4992442;28;20469;-73
2022/12/13 03:36:07;;;;;;;2.10;1.90;;;-2.90;98.20;;;;;;4979181;28;20486;-73
2022/12/13 03:38:34;;;;;;;2.00;1.90;;;-2.90;98.20;;;;;;4987993;28;20468;-74
2022/12/13 03:41:06;;;;;;;2.10;1.90;;;-2.90;98.20;;;;;;4981505;28;20468;-74
2022/12/13 03:43:33;;;;;;;2.10;1.90;;;-2.90;98.20;;;;;;4991691;28;21080;-74
2022/12/13 03:46:01;;;;;;;2.10;1.90;;;-2.90;98.20;;;;;;4977897;28;20491;-74
2022/12/13 03:48:28;;;;;;;2.10;1.90;;;-3.00;98.20;;;;;;4991123;28;20469;-74
2022/12/13 03:50:56;;;;;;;1.90;1.80;;;-3.00;98.20;;;;;;4978728;28;20463;-75
2022/12/13 03:53:25;;;;;;;2.23;2.03;;;-3.00;98.20;;;;;;4992252;28;20472;-73
2022/12/13 03:55:52;;;;;;;1.90;1.80;;;-3.00;98.20;;;;;;4976943;28;20835;-74
2022/12/13 03:58:19;;;;;;;2.03;1.87;;;-3.00;98.20;;;;;;4981603;28;20464;-75
2022/12/13 04:00:46;;;;;;;2.50;2.30;;;-3.00;98.20;;;;;;4987188;28;20461;-75
2022/12/13 04:03:13;;;;;;;1.90;1.80;;;-3.00;98.20;;;;;;4992188;28;20465;-74
2022/12/13 04:05:40;;;;;;;1.97;1.80;;;-3.00;98.20;;;;;;4987918;28;21192;-74
2022/12/13 04:08:07;;;;;;;2.30;2.10;;;-3.00;98.20;;;;;;4977240;28;20522;-75
2022/12/13 04:10:35;;;;;;;2.30;2.10;;;-3.00;98.20;;;;;;4988462;28;20465;-76
2022/12/13 04:15:48;;;;;;;2.03;1.90;;;-3.00;98.20;;;;;;4983902;28;21025;-75
2022/12/13 04:18:16;;;;;;;2.10;1.90;;;-3.00;98.20;;;;;;4991380;28;20474;-73
2022/12/13 04:20:43;;;;;;;4.13;3.93;;;-3.00;98.20;;;;;;4989220;28;20468;-74
2022/12/13 04:23:12;;;;;;;2.10;1.90;;;-3.00;98.20;;;;;;4966669;28;20480;-73
2022/12/13 04:25:40;;;;;;;2.03;1.90;;;-3.00;98.20;;;;;;4987312;28;20497;-76
2022/12/13 04:28:07;;;;;;;2.30;2.10;;;-3.00;98.20;;;;;;4981510;28;20495;-74
2022/12/13 04:30:35;;;;;;;2.10;1.90;;;-3.00;98.20;;;;;;4988354;28;20844;-75
2022/12/13 04:33:03;;;;;;;2.10;1.90;;;-3.10;98.20;;;;;;4982015;28;20488;-75
2022/12/13 04:35:29;;;;;;;1.90;1.80;;;-3.10;98.20;;;;;;4987918;28;21006;-73
2022/12/13 04:37:56;;;;;;;2.10;1.90;;;-3.10;98.20;;;;;;4976716;28;20481;-73
2022/12/13 04:40:23;;;;;;;2.33;2.13;;;-3.10;98.20;;;;;;4988619;28;20461;-73
2022/12/13 04:42:53;;;;;;;2.10;1.90;;;-3.10;98.20;;;;;;4977376;28;20485;-75
2022/12/13 04:45:21;;;;;;;2.00;1.90;;;-3.10;98.20;;;;;;4987159;28;20913;-75
2022/12/13 04:47:48;;;;;;;2.83;2.63;;;-3.10;98.20;;;;;;4984405;28;20490;-74
2022/12/13 04:50:15;;;;;;;2.20;2.00;;;-3.10;98.20;;;;;;4988304;28;20465;-74
2022/12/13 04:52:43;;;;;;;1.90;1.80;;;-3.10;98.20;;;;;;4982057;28;20551;-74
2022/12/13 04:55:10;;;;;;;1.90;1.80;;;-3.10;98.20;;;;;;4987688;28;20477;-74
2022/12/13 04:57:37;;;;;;;2.00;1.90;;;-3.10;98.20;;;;;;4981064;28;20491;-74
2022/12/13 05:00:08;;;;;;;7.40;6.90;;;-3.00;98.20;;;;;;4984278;28;20532;-72
2022/12/13 05:02:35;;;;;;;1.90;1.80;;;-3.00;98.20;;;;;;4977914;28;20501;-74
2022/12/13 05:05:02;;;;;;;3.73;3.50;;;-3.00;98.20;;;;;;4986352;28;20496;-76
2022/12/13 05:07:30;;;;;;;2.73;2.53;;;-3.00;98.20;;;;;;4976689;28;20481;-74
2022/12/13 05:09:56;;;;;;;3.80;3.50;;;-3.00;98.20;;;;;;4979315;28;20469;-75
2022/12/13 05:12:23;;;;;;;2.20;2.00;;;-3.00;98.20;;;;;;4981982;28;21000;-75
2022/12/13 05:14:50;;;;;;;2.10;1.90;;;-3.00;98.20;;;;;;4986227;28;20835;-74
2022/12/13 05:17:19;;;;;;;2.10;1.90;;;-3.10;98.20;;;;;;4981059;28;20578;-74
2022/12/13 05:19:46;;;;;;;1.90;1.80;;;-3.10;98.20;;;;;;4987705;28;20489;-76
2022/12/13 05:22:14;;;;;;;1.90;1.80;;;-3.10;98.20;;;;;;4982075;28;20481;-74
2022/12/13 05:24:42;;;;;;;1.90;1.80;;;-3.10;98.20;;;;;;4987510;28;20863;-75
2022/12/13 05:27:09;;;;;;;2.00;1.90;;;-3.10;98.20;;;;;;4980436;28;20535;-75
2022/12/13 05:29:36;;;;;;;2.07;1.90;;;-3.20;98.20;;;;;;4985993;28;20473;-74
2022/12/13 05:32:03;;;;;;;2.10;1.90;;;-3.20;98.20;;;;;;4973894;28;20524;-73
2022/12/13 05:34:31;;;;;;;2.20;2.00;;;-3.20;98.20;;;;;;4980140;28;20883;-75
2022/12/13 05:36:58;;;;;;;2.07;1.90;;;-3.20;98.20;;;;;;4975951;28;20492;-75
2022/12/13 05:39:24;;;;;;;1.90;1.80;;;-3.20;98.20;;;;;;4985922;28;20461;-73
2022/12/13 05:41:51;;;;;;;2.07;1.90;;;-3.30;98.20;;;;;;4979853;28;20488;-74
2022/12/13 05:44:18;;;;;;;2.77;2.57;;;-3.30;98.20;;;;;;4986170;28;20465;-73
2022/12/13 05:46:45;;;;;;;2.13;2.00;;;-3.30;98.20;;;;;;4980696;28;20997;-73
2022/12/13 05:49:11;;;;;;;2.00;1.90;;;-3.30;98.20;;;;;;4986289;28;20549;-73
2022/12/13 05:51:39;;;;;;;1.97;1.87;;;-3.30;98.20;;;;;;4982495;28;20508;-75
2022/12/13 05:54:06;;;;;;;2.00;1.90;;;-3.30;98.20;;;;;;4986169;28;20475;-74
2022/12/13 05:56:33;;;;;;;2.00;1.90;;;-3.40;98.20;;;;;;4974826;28;20473;-73
2022/12/13 05:59:00;;;;;;;2.10;1.90;;;-3.30;98.20;;;;;;4985139;28;20465;-72
2022/12/13 06:01:27;;;;;;;1.90;1.80;;;-3.40;98.20;;;;;;4979042;28;20922;-73
2022/12/13 06:03:53;;;;;;;3.90;3.70;;;-3.40;98.20;;;;;;4981716;28;20472;-72
2022/12/13 06:06:20;;;;;;;2.10;1.90;;;-3.40;98.20;;;;;;4975773;28;21236;-74
2022/12/13 06:08:48;;;;;;;2.03;1.90;;;-3.40;98.20;;;;;;4985211;28;20505;-73
2022/12/13 06:11:15;;;;;;;7.23;5.40;;;-3.40;98.20;;;;;;4979841;28;20483;-73
2022/12/13 06:13:43;;;;;;;2.07;1.90;;;-3.40;98.20;;;;;;4987799;28;20477;-72
2022/12/13 06:16:11;;;;;;;2.10;1.90;;;-3.40;98.20;;;;;;4975717;28;20481;-72
2022/12/13 06:18:38;;;;;;;1.97;1.80;;;-3.40;98.20;;;;;;4989495;28;20472;-72
2022/12/13 06:21:06;;;;;;;1.97;1.87;;;-3.40;98.20;;;;;;4977428;28;20941;-73
2022/12/13 06:23:34;;;;;;;1.97;1.87;;;-3.50;98.20;;;;;;4989903;28;20472;-72
2022/12/13 06:26:04;;;;;;;2.00;1.90;;;-3.50;98.20;;;;;;4982777;28;20489;-73
2022/12/13 06:28:31;;;;;;;2.23;2.03;;;-3.50;98.20;;;;;;4989357;28;20469;-74
2022/12/13 06:31:00;;;;;;;3.40;3.20;;;-3.60;98.20;;;;;;4975979;28;20469;-72
2022/12/13 06:33:27;;;;;;;2.87;2.67;;;-3.60;98.20;;;;;;4985271;28;20465;-72
2022/12/13 06:35:57;;;;;;;2.10;1.90;;;-3.60;98.20;;;;;;4976018;28;20489;-73
2022/12/13 06:38:24;;;;;;;2.30;2.10;;;-3.60;98.20;;;;;;4986812;28;20468;-72
2022/12/13 06:40:51;;;;;;;2.00;1.90;;;-3.60;98.20;;;;;;4978822;28;20514;-72
2022/12/13 06:43:20;;;;;;;1.97;1.87;;;-3.60;98.20;;;;;;4985107;28;20465;-72
2022/12/13 06:45:47;;;;;;;2.00;1.90;;;-3.60;98.20;;;;;;4980144;28;20851;-72
2022/12/13 06:48:14;;;;;;;2.07;1.87;;;-3.60;98.20;;;;;;4991503;28;20493;-72
2022/12/13 06:50:41;;;;;;;3.17;2.97;;;-3.60;98.20;;;;;;4980732;28;20679;-73
2022/12/13 06:53:07;;;;;;;2.00;1.90;;;-3.60;98.20;;;;;;4981225;28;20487;-72
2022/12/13 06:55:35;;;;;;;2.20;2.00;;;-3.60;98.20;;;;;;4989337;28;20827;-71
2022/12/13 06:58:02;;;;;;;3.10;2.90;;;-3.60;98.20;;;;;;4978555;28;20496;-71
2022/12/13 07:00:31;;;;;;;2.10;1.90;;;-3.60;98.20;;;;;;4991074;28;20809;-71
2022/12/13 07:02:57;;;;;;;2.63;2.43;;;-3.60;98.20;;;;;;4977482;28;20477;-72
2022/12/13 07:05:26;;;;;;;2.10;1.90;;;-3.60;98.20;;;;;;4987062;28;20480;-73
2022/12/13 07:07:53;;;;;;;2.10;1.90;;;-3.60;98.20;;;;;;4980699;28;20579;-73
2022/12/13 07:10:20;;;;;;;2.10;1.90;;;-3.70;98.20;;;;;;4989536;28;20472;-73
2022/12/13 07:12:47;;;;;;;2.00;1.80;;;-3.70;98.20;;;;;;4981189;28;20489;-71
2022/12/13 07:15:14;;;;;;;2.07;1.90;;;-3.70;98.20;;;;;;4993268;28;20515;-70
2022/12/13 07:17:42;;;;;;;2.20;2.00;;;-3.70;98.20;;;;;;4983292;28;20477;-73
2022/12/13 07:20:12;;;;;;;2.10;1.90;;;-3.60;98.20;;;;;;4989045;28;20552;-73
2022/12/13 07:22:39;;;;;;;2.20;2.00;;;-3.70;98.20;;;;;;4979480;28;20481;-72
2022/12/13 07:25:06;;;;;;;2.40;2.20;;;-3.70;98.20;;;;;;4989201;28;20547;-74
2022/12/13 07:27:33;;;;;;;2.00;1.90;;;-3.70;98.20;;;;;;4980717;28;20496;-74
2022/12/13 07:30:01;;;;;;;2.33;2.13;;;-3.70;98.20;;;;;;4987365;28;20465;-72
2022/12/13 07:32:27;;;;;;;2.10;1.90;;;-3.70;98.20;;;;;;4978287;28;20517;-73
2022/12/13 07:34:55;;;;;;;1.93;1.83;;;-3.70;98.20;;;;;;4987110;28;20492;-71
2022/12/13 07:37:22;;;;;;;2.00;1.90;;;-3.70;98.20;;;;;;4981309;28;20484;-74
2022/12/13 07:39:49;;;;;;;4.07;3.83;;;-3.70;98.20;;;;;;4987644;28;20464;-71
2022/12/13 07:42:16;;;;;;;2.23;2.03;;;-3.70;98.20;;;;;;4981775;28;20499;-73
2022/12/13 07:44:43;;;;;;;6.93;6.53;;;-3.70;98.20;;;;;;4991479;28;20848;-72
2022/12/13 07:47:09;;;;;;;2.17;2.00;;;-3.80;98.20;;;;;;4978590;28;20578;-73
2022/12/13 07:49:37;;;;;;;2.20;2.00;;;-3.80;98.20;;;;;;4988759;28;20453;-73
2022/12/13 07:52:05;;;;;;;2.00;1.90;;;-3.80;98.20;;;;;;4978413;28;20476;-73
2022/12/13 07:54:33;;;;;;;2.07;1.90;;;-3.80;98.20;;;;;;4987305;28;20468;-73
2022/12/13 07:56:59;;;;;;;2.07;1.90;;;-3.80;98.20;;;;;;4977377;28;20488;-73
2022/12/13 07:59:26;;;;;;;2.03;1.90;;;-3.80;98.20;;;;;;4988980;28;20468;-72
2022/12/13 08:01:53;;;;;;;2.20;2.00;;;-3.80;98.20;;;;;;4977602;28;21032;-71
2022/12/13 08:04:20;;;;;;;2.20;2.00;;;-3.80;98.20;;;;;;4987660;28;20538;-73
2022/12/13 08:06:47;;;;;;;2.60;2.40;;;-3.80;98.20;;;;;;4975769;28;20489;-72
2022/12/13 08:09:15;;;;;;;2.10;1.90;;;-3.70;98.20;;;;;;4988429;28;20882;-73
2022/12/13 08:11:42;;;;;;;2.00;1.90;;;-3.70;98.20;;;;;;4979403;28;20953;-70
2022/12/13 08:14:08;;;;;;;2.13;1.97;;;-3.70;98.20;;;;;;4987649;28;20457;-70
2022/12/13 08:16:35;;;;;;;1.90;1.80;;;-3.70;98.20;;;;;;4977250;28;20756;-70
2022/12/13 08:19:02;;;;;;;2.20;2.00;;;-3.60;98.20;;;;;;4990227;28;20469;-70
2022/12/13 08:21:29;;;;;;;3.37;3.07;;;-3.60;98.20;;;;;;4978682;28;20535;-70
2022/12/13 08:23:56;;;;;;;2.00;1.90;;;-3.60;98.20;;;;;;4984211;28;20469;-70
2022/12/13 08:26:24;;;;;;;2.20;2.00;;;-3.60;98.20;;;;;;4976944;28;20480;-70
2022/12/13 08:28:51;;;;;;;2.10;1.90;;;-3.60;98.20;;;;;;4986274;28;20544;-71
2022/12/13 08:31:18;;;;;;;2.00;1.90;;;-3.50;98.20;;;;;;4971445;28;20481;-72
2022/12/13 08:33:46;;;;;;;2.10;1.90;;;-3.50;98.20;;;;;;4988197;28;20527;-70
2022/12/13 08:36:16;;;;;;;2.00;1.90;;;-3.50;98.20;;;;;;4979382;28;20516;-73
2022/12/13 08:38:43;;;;;;;2.20;2.00;;;-3.50;98.20;;;;;;4990544;28;20556;-72
2022/12/13 08:41:10;;;;;;;1.97;1.87;;;-3.40;98.20;;;;;;4976299;28;21111;-72
2022/12/13 08:43:39;;;;;;;1.97;1.87;;;-3.40;98.20;;;;;;4984449;28;20469;-71
2022/12/13 08:46:06;;;;;;;2.10;1.90;;;-3.30;98.20;;;;;;4977333;28;20454;-72
2022/12/13 08:48:33;;;;;;;2.93;2.73;;;-3.20;98.20;;;;;;4986534;28;20472;-72
2022/12/13 08:51:01;;;;;;;1.97;1.80;;;-3.20;98.20;;;;;;4977771;28;20985;-71
2022/12/13 08:53:28;;;;;;;2.03;1.90;;;-3.10;98.20;;;;;;4985935;28;20461;-71
2022/12/13 08:55:59;;;;;;;2.20;2.00;;;-3.10;98.20;;;;;;4976206;28;20905;-71
2022/12/13 08:58:25;;;;;;;1.93;1.83;;;-3.00;98.20;;;;;;4989427;28;20846;-71
2022/12/13 09:00:53;;;;;;;2.30;2.10;;;-3.00;98.20;;;;;;4976361;28;20829;-71
2022/12/13 09:03:20;;;;;;;2.40;2.20;;;-3.00;98.20;;;;;;4983904;28;20468;-71
2022/12/13 09:05:47;;;;;;;2.00;1.90;;;-3.00;98.20;;;;;;4979805;28;20481;-71
2022/12/13 09:08:14;;;;;;;1.90;1.80;;;-3.00;98.20;;;;;;4986375;28;20469;-71
2022/12/13 09:10:41;;;;;;;2.20;2.00;;;-3.00;98.20;;;;;;4986237;28;20461;-74
2022/12/13 09:13:07;;;;;;;1.90;1.80;;;-3.00;98.20;;;;;;4975978;28;20489;-72
2022/12/13 09:15:34;;;;;;;2.00;1.90;;;-3.00;98.20;;;;;;4993027;28;20497;-73
2022/12/13 09:18:03;;;;;;;2.00;1.90;;;-3.00;98.20;;;;;;4976364;28;20507;-73
2022/12/13 09:20:30;;;;;;;1.90;1.80;;;-3.00;98.20;;;;;;4988717;28;20461;-72
2022/12/13 09:22:57;;;;;;;2.00;1.90;;;-3.00;98.20;;;;;;4975443;28;20477;-72
2022/12/13 09:25:24;;;;;;;1.90;1.80;;;-2.90;98.20;;;;;;4987472;28;20846;-72
2022/12/13 09:27:50;;;;;;;2.00;1.90;;;-2.90;98.20;;;;;;4973956;28;20495;-72
2022/12/13 09:30:17;;;;;;;1.90;1.80;;;-2.90;98.20;;;;;;4986555;28;20458;-72
2022/12/13 09:32:48;;;;;;;2.00;1.80;;;-2.90;98.20;;;;;;4975237;28;21092;-72
2022/12/13 09:35:16;;;;;;;1.90;1.80;;;-2.80;98.20;;;;;;4988021;28;20480;-72
2022/12/13 09:37:43;;;;;;;2.30;2.10;;;-2.80;98.20;;;;;;4976947;28;20492;-73
2022/12/13 09:40:17;;;;;;;2.07;1.90;;;-2.80;98.20;;;;;;4987541;28;20469;-70
2022/12/13 09:42:48;;;;;;;2.20;2.00;;;-2.70;98.20;;;;;;4978512;28;21064;-73
2022/12/13 09:45:14;;;;;;;2.07;1.90;;;-2.60;98.20;;;;;;4986324;28;20481;-71
2022/12/13 09:47:44;;;;;;;2.00;1.90;;;-2.60;98.20;;;;;;4974539;28;20933;-71
2022/12/13 09:50:14;;;;;;;2.00;1.90;;;-2.50;98.20;;;;;;4987985;28;20460;-71
2022/12/13 09:52:44;;;;;;;2.00;1.90;;;-2.50;98.20;;;;;;4976170;28;20882;-71
2022/12/13 09:55:23;;;;;;;1.97;1.83;;;-2.50;98.20;;;;;;4986843;28;20481;-71
2022/12/13 09:57:51;;;;;;;1.90;1.80;;;-2.50;98.20;;;;;;4980785;28;20456;-73
2022/12/13 10:00:20;;;;;;;1.90;1.80;;;-2.40;98.20;;;;;;4989096;28;20997;-71
2022/12/13 10:02:50;;;;;;;2.00;1.90;;;-2.30;98.20;;;;;;4973765;28;20489;-72
2022/12/13 10:05:22;;;;;;;6.03;5.63;;;-2.30;98.20;;;;;;4992406;28;20519;-71
2022/12/13 10:07:52;;;;;;;1.93;1.80;;;-2.20;98.20;;;;;;4977073;28;20488;-71
2022/12/13 10:10:20;;;;;;;2.10;1.90;;;-2.20;98.20;;;;;;4989952;28;20465;-71
2022/12/13 10:12:52;;;;;;;2.00;1.87;;;-2.10;98.20;;;;;;4974144;28;20493;-71
2022/12/13 10:15:20;;;;;;;1.93;1.80;;;-2.10;98.20;;;;;;4986700;28;20492;-71
2022/12/13 10:17:48;;;;;;;1.90;1.80;;;-2.00;98.20;;;;;;4973458;28;20500;-72
2022/12/13 10:20:18;;;;;;;1.80;1.70;;;-2.00;98.20;;;;;;4986476;28;20508;-71
2022/12/13 10:22:45;;;;;;;1.80;1.70;;;-2.00;98.20;;;;;;4970399;28;20485;-71
2022/12/13 10:25:15;;;;;;;1.80;1.70;;;-1.90;98.20;;;;;;4989785;28;21053;-71
2022/12/13 10:27:44;;;;;;;2.10;1.90;;;-1.90;98.20;;;;;;4979392;28;20512;-72
2022/12/13 10:30:13;;;;;;;1.80;1.70;;;-1.90;98.20;;;;;;4990396;28;20461;-71
2022/12/13 10:32:49;;;;;;;5.10;4.70;;;-1.80;98.20;;;;;;4977152;28;20501;-72
2022/12/13 10:35:23;;;;;;;1.90;1.80;;;-1.70;98.20;;;;;;4989864;28;20480;-71
2022/12/13 10:37:50;;;;;;;2.20;2.00;;;-1.70;98.20;;;;;;4983101;28;20866;-71
2022/12/13 10:40:27;;;;;;;1.87;1.77;;;-1.70;98.20;;;;;;4989071;28;20461;-72
2022/12/13 10:43:08;;;;;;;1.80;1.70;;;-1.70;98.20;;;;;;4977922;28;20488;-72
2022/12/13 10:45:35;;;;;;;2.20;2.00;;;-1.60;98.20;;;;;;4988777;28;20480;-74
2022/12/13 10:48:03;;;;;;;2.00;1.80;;;-1.60;98.20;;;;;;4977999;28;20998;-71
2022/12/13 10:50:31;;;;;;;1.87;1.77;;;-1.60;98.20;;;;;;4989882;28;20462;-72
2022/12/13 10:52:59;;;;;;;3.20;3.00;;;-1.60;98.20;;;;;;4981022;28;20823;-72
2022/12/13 10:55:32;;;;;;;7.60;7.10;;;-1.50;98.20;;;;;;4988536;28;21012;-72
2022/12/13 10:58:01;;;;;;;1.80;1.70;;;-1.40;98.20;;;;;;4986480;28;20485;-71
2022/12/13 11:00:36;;;;;;;1.80;1.70;;;-1.30;98.20;;;;;;4990176;28;20468;-72
2022/12/13 11:03:03;;;;;;;1.80;1.70;;;-1.20;98.20;;;;;;4978222;28;20511;-71
2022/12/13 11:05:32;;;;;;;2.00;1.80;;;-1.20;98.20;;;;;;4990017;28;20484;-72
2022/12/13 11:08:14;;;;;;;1.90;1.80;;;-1.10;98.20;;;;;;4978713;28;20495;-72
2022/12/13 11:10:43;;;;;;;2.10;1.90;;;-1.00;98.20;;;;;;4988574;28;20633;-73
2022/12/13 11:13:23;;;;;;;1.80;1.70;;;-1.00;98.20;;;;;;4978908;28;20488;-71
2022/12/13 11:15:55;;;;;;;1.87;1.77;;;-1.00;98.20;;;;;;4980404;28;21017;-73
2022/12/13 11:18:25;;;;;;;1.80;1.70;;;-1.00;98.20;;;;;;4985194;28;20469;-71
2022/12/13 11:20:56;;;;;;;2.07;1.90;;;-0.90;98.20;;;;;;4979020;28;20469;-72
2022/12/13 11:23:29;;;;;;;1.80;1.70;;;-0.90;98.20;;;;;;4988144;28;20461;-74
2022/12/13 11:26:00;;;;;;;1.80;1.70;;;-0.90;98.20;;;;;;4978040;28;20481;-71
2022/12/13 11:28:50;;;;;;;2.17;1.80;;;-0.80;98.20;;;;;;4984675;28;20464;-71
2022/12/13 11:31:26;;;;;;;1.80;1.70;;;-0.80;98.20;;;;;;4979572;28;20523;-71
2022/12/13 11:34:03;;;;;;;1.80;1.70;;;-0.70;98.20;;;;;;4987233;28;21679;-71
2022/12/13 11:36:41;;;;;;;1.90;1.80;;;-0.70;98.20;;;;;;4977517;28;21056;-71
2022/12/13 11:39:18;;;;;;;2.00;1.80;;;-0.70;98.20;;;;;;4986521;28;20468;-71
2022/12/13 11:42:12;;;;;;;1.80;1.70;;;-0.60;98.20;;;;;;4979123;28;20485;-72
2022/12/13 11:44:45;;;;;;;1.80;1.70;;;-0.50;98.20;;;;;;4990228;28;20461;-71
2022/12/13 11:47:18;;;;;;;1.83;1.73;;;-0.50;98.20;;;;;;4975976;28;20492;-74
2022/12/13 11:49:47;;;;;;;2.10;1.90;;;-0.40;98.20;;;;;;4989982;28;20465;-73
2022/12/13 11:52:18;;;;;;;1.80;1.70;;;-0.40;98.20;;;;;;4976026;28;20487;-73
2022/12/13 11:54:54;;;;;;;1.90;1.80;;;-0.30;98.20;;;;;;4988071;28;20938;-73
2022/12/13 11:57:35;;;;;;;1.80;1.70;;;-0.30;98.20;;;;;;4979160;28;20531;-72
2022/12/13 12:00:09;;;;;;;1.80;1.70;;;-0.30;98.20;;;;;;4987558;28;20833;-72
2022/12/13 12:02:41;;;;;;;1.80;1.70;;;-0.20;98.20;;;;;;4978310;28;20481;-73
2022/12/13 12:05:23;;;;;;;1.80;1.70;;;-0.20;98.20;;;;;;4987675;28;20496;-72
2022/12/13 12:07:56;;;;;;;1.80;1.70;;;-0.10;98.20;;;;;;4975883;28;20507;-73
2022/12/13 12:10:29;;;;;;;1.97;1.80;;;-0.10;98.20;;;;;;4986496;28;20835;-73
2022/12/13 12:13:03;;;;;;;1.70;1.60;;;-0.10;98.20;;;;;;4976467;28;20484;-72
2022/12/13 12:15:34;;;;;;;1.70;1.60;;;0.00;98.20;;;;;;4991007;28;20484;-73
2022/12/13 12:18:01;;;;;;;1.70;1.60;;;0.00;98.20;;;;;;4975423;28;20500;-72
2022/12/13 12:20:44;;;;;;;1.70;1.60;;;0.00;98.20;;;;;;4989678;28;20465;-72
2022/12/13 12:23:20;;;;;;;1.73;1.63;;;0.00;98.20;;;;;;4956954;28;20469;-72
2022/12/13 12:25:53;;;;;;;1.70;1.60;;;0.00;98.20;;;;;;4989122;28;20521;-73
2022/12/13 12:28:33;;;;;;;1.70;1.60;;;0.00;98.20;;;;;;4981972;28;20481;-72
2022/12/13 12:31:09;;;;;;;1.70;1.60;;;0.00;98.20;;;;;;4976154;28;20818;-72
2022/12/13 12:33:46;;;;;;;1.70;1.60;;;0.10;98.20;;;;;;4986802;28;20488;-72
2022/12/13 12:36:26;;;;;;;2.03;1.83;;;0.10;98.20;;;;;;4977683;28;20487;-72
2022/12/13 12:48:31;;;;;;;1.70;1.60;;;0.40;98.20;;;;;;3351954;26;20837;-75
2022/12/13 12:51:04;;;;;;;1.70;1.60;;;0.60;98.20;;;;;;5016008;28;20467;-75
2022/12/13 12:53:41;;;;;;;1.70;1.60;;;0.70;98.20;;;;;;5030274;28;20463;-75
2022/12/13 12:56:25;;;;;;;1.80;1.70;;;0.90;98.20;;;;;;4997947;28;20530;-75
2022/12/13 12:59:00;;;;;;;1.70;1.50;;;1.10;98.20;;;;;;5011813;28;20464;-75
2022/12/13 13:01:39;;;;;;;1.70;1.60;;;1.10;98.20;;;;;;4997715;28;20470;-75
2022/12/13 13:04:11;;;;;;;2.00;1.80;;;1.20;98.20;;;;;;5011789;28;20837;-76
2022/12/13 13:06:43;;;;;;;1.70;1.60;;;1.20;98.20;;;;;;4998101;28;20925;-76
2022/12/13 13:09:12;;;;;;;1.90;1.70;;;1.10;98.20;;;;;;5007537;28;20491;-76
2022/12/13 13:11:41;;;;;;;1.70;1.60;;;1.20;98.20;;;;;;5001182;28;20483;-75
2022/12/13 13:14:26;;;;;;;1.80;1.70;;;1.20;98.20;;;;;;5010168;28;20464;-76